Iliamna, AK (99606)

8:46 AM AKDT on July 24, 2016 (GMT -0800)
Iliamna | | Change Station

Elev 161 ft 59.75 °N, 154.91 °W | Updated 27 minutes ago

Light Rain
Light Rain Mist
54 °F
Feels Like 54 °F
N
0
Wind Variable Wind from North

Today
High -- | Low -- °F
--% Chance of Precip.
Yesterday
High -- | Low -- °F
Precip. -- in
Pressure 29.62 in
Visibility 1.2 miles
Clouds Mostly Cloudy 500 ft
Overcast 1000 ft
Dew Point 54 °F
Humidity 100%
Rainfall 0.08 in
Snow Depth Not available.
5:48 AM 11:05 PM
Waning Gibbous, 75% visible
SPECI PAIL 241619Z 00000KT 1 1/4SM -RA BR BKN005 OVC010 12/12 A2962 RMK AO2 RAB12 P0000 T01220122
Pressure 29.62 in
Visibility 1.2 miles
Clouds Mostly Cloudy 500 ft
Overcast 1000 ft
Dew Point 54 °F
Humidity 100%
Rainfall 0.08 in
Snow Depth Not available.
5:48 AM 11:05 PM
Waning Gibbous, 75% visible
SPECI PAIL 241619Z 00000KT 1 1/4SM -RA BR BKN005 OVC010 12/12 A2962 RMK AO2 RAB12 P0000 T01220122

10-Day Weather Forecast

Almanac

Astronomy

Jul. 24, 2016 Rise Set
Actual Time
Civil Twilight
Nautical Twilight
Astronomical Twilight
Moon
Length of Visible Light
Length of Day
Tomorrow will be .
, % of the Moon is Illuminated

Today's Extremes

State Highs State Lows

Community

WunderPhotos

Upload Photos

1,927,121 photos uploaded!

WunderBlog® & News

Nearby

Air Quality

  Air Quality AQ Index Pollutant
Not available.

Snow Depth

Station Depth Elevation

Earthquake Activity

City Distance Mag. Time & Date
Minimum magnitude displayed is 2.5.

Coastal Water Temperatures

Place Temperature

Stations

Nearby Weather Stations

Station Location Temp. Windchill Dew Point Humidity Wind Precip. Elev Updated Type
                   

Watches & Warnings

There are currently no watches in effect.